KJLN

Joplin Regional Airport

Joplin, Missouri, USA
KJLN 220327Z 2203/2224 03007KT P6SM VCSH FEW025 OVC120 TEMPO 2203/2207 6SM -SHRA SCT025 OVC100 FM220700 04010KT P6SM SCT025 OVC100 FM221500 06010KT P6SM OVC100
Issued Valid From Valid To
Sep-22 @ 03:27 UTC
(6 minutes ago)
Sep-22 @ 03:00 UTC
(33 minutes ago)
Sep-23 @ 00:00 UTC
(in 20 hours)
to
to
to
to
KJLN 220327Z 2203/2224 03007KT P6SM VCSH FEW025 OVC120 TEMPO 2203/2207 6SM -SHRA SCT025 OVC100 FM220700 04010KT P6SM SCT025 OVC100 FM221500 06010KT P6SM OVC100
Issued Sep-22 @ 03:27 UTC
(6 minutes ago)
Valid From Sep-22 @ 03:00 UTC
(33 minutes ago)
Valid To Sep-23 @ 00:00 UTC
(in 20 hours)
-
-
-
-